Time;durP1;ratioP1;P1;durP2;ratioP2;P2;SDS_P1;SDS_P2;PMS_P1;PMS_P2;Temp;Humidity;BMP_temperature;BMP_pressure;BME280_temperature;BME280_humidity;BME280_pressure;Samples;Min_cycle;Max_cycle;Signal;HPM_P1;HPM_P2
2022/04/10 00:00:15;;;;;;;9.93;2.67;;;2.30;99.90;;;;;;4970720;28;20370;-72
2022/04/10 00:02:41;;;;;;;7.07;2.80;;;;;;;;;;4984241;28;20038;-72
2022/04/10 00:05:08;;;;;;;9.33;3.00;;;2.30;99.90;;;;;;4971132;28;20023;-72
2022/04/10 00:07:34;;;;;;;11.30;2.53;;;;;;;;;;4970136;28;20035;-72
2022/04/10 00:10:00;;;;;;;9.77;3.10;;;;;;;;;;4970752;28;20046;-72
2022/04/10 00:12:26;;;;;;;11.73;2.40;;;2.00;99.90;;;;;;4977129;28;20046;-73
2022/04/10 00:14:52;;;;;;;6.17;2.97;;;;;;;;;;4975504;28;20479;-73
2022/04/10 00:17:17;;;;;;;7.70;2.80;;;2.10;99.90;;;;;;4972330;28;20029;-72
2022/04/10 00:19:45;;;;;;;6.07;2.50;;;2.20;99.90;;;;;;4987011;28;20041;-72
2022/04/10 00:22:12;;;;;;;5.43;2.40;;;;;;;;;;4987674;28;20129;-72
2022/04/10 00:24:37;;;;;;;7.70;2.40;;;2.10;99.90;;;;;;4993125;28;20352;-72
2022/04/10 00:27:03;;;;;;;8.87;2.50;;;2.10;99.90;;;;;;4978852;28;20046;-72
2022/04/10 00:29:29;;;;;;;9.20;3.73;;;2.10;99.90;;;;;;4974505;28;20042;-72
2022/04/10 00:31:55;;;;;;;12.40;3.03;;;2.10;99.90;;;;;;4975556;28;20031;-73
2022/04/10 00:34:20;;;;;;;8.70;2.63;;;1.80;99.90;;;;;;4994205;28;20045;-72
2022/04/10 00:36:46;;;;;;;11.43;2.93;;;;;;;;;;4993051;28;20459;-73
2022/04/10 00:39:12;;;;;;;10.03;2.73;;;;;;;;;;4993917;28;20112;-73
2022/04/10 00:41:37;;;;;;;5.03;2.70;;;2.00;99.90;;;;;;4983333;28;20074;-73
2022/04/10 00:44:05;;;;;;;9.43;3.07;;;1.90;99.90;;;;;;4989832;28;20045;-72
2022/04/10 00:46:31;;;;;;;8.50;2.43;;;;;;;;;;4980655;28;20031;-72
2022/04/10 00:48:56;;;;;;;6.77;2.50;;;1.70;99.90;;;;;;4974622;28;20045;-72
2022/04/10 00:51:41;;;;;;;5.07;2.37;;;;;;;;;;4974756;28;20469;-72
2022/04/10 00:54:30;;;;;;;13.82;2.88;;;1.90;99.90;;;;;;4992687;28;20105;-72
2022/04/10 00:56:57;;;;;;;10.00;2.60;;;1.70;99.90;;;;;;4970458;28;20030;-73
2022/04/10 00:59:23;;;;;;;11.67;2.57;;;;;;;;;;4974045;28;20460;-72
2022/04/10 01:01:49;;;;;;;9.47;2.87;;;1.40;99.90;;;;;;4974332;28;20057;-73
2022/04/10 01:04:16;;;;;;;7.00;2.73;;;;;;;;;;4974086;28;20027;-73
2022/04/10 01:06:54;;;;;;;7.83;2.77;;;1.70;99.90;;;;;;4955969;28;20053;-73
2022/04/10 01:09:20;;;;;;;8.03;2.33;;;1.90;99.90;;;;;;4973927;28;20376;-72
2022/04/10 01:11:46;;;;;;;9.57;2.90;;;1.70;99.90;;;;;;4979457;28;20077;-72
2022/04/10 01:14:13;;;;;;;8.03;1.97;;;1.70;99.90;;;;;;4980672;28;20038;-73
2022/04/10 01:16:39;;;;;;;8.07;2.80;;;;;;;;;;4990964;28;20431;-73
2022/04/10 01:19:05;;;;;;;7.73;2.70;;;1.80;99.90;;;;;;4957493;28;20058;-72
2022/04/10 01:21:39;;;;;;;8.80;2.20;;;1.90;99.90;;;;;;4955918;28;20039;-72
2022/04/10 01:24:06;;;;;;;10.55;3.75;;;1.70;99.90;;;;;;4973242;28;20041;-72
2022/04/10 01:26:31;;;;;;;9.83;2.70;;;1.70;99.90;;;;;;4983823;28;20077;-73
2022/04/10 01:29:09;;;;;;;9.63;3.17;;;1.70;99.90;;;;;;4990784;28;20475;-72
2022/04/10 01:31:38;;;;;;;7.67;3.27;;;1.70;99.90;;;;;;4972778;28;20407;-72
2022/04/10 01:34:13;;;;;;;8.87;3.27;;;2.00;99.90;;;;;;4973235;28;20384;-73
2022/04/10 01:36:39;;;;;;;8.60;3.77;;;;;;;;;;4983259;28;20022;-72
2022/04/10 01:39:07;;;;;;;10.13;2.60;;;1.40;99.90;;;;;;4974973;28;20027;-72
2022/04/10 01:41:37;;;;;;;8.27;2.40;;;1.60;99.90;;;;;;4978603;28;20030;-72
2022/04/10 01:44:04;;;;;;;10.40;2.53;;;1.60;99.90;;;;;;4978586;28;20031;-72
2022/04/10 01:46:30;;;;;;;10.23;2.80;;;1.30;99.90;;;;;;4985276;28;20026;-72
2022/04/10 01:48:57;;;;;;;8.57;3.10;;;1.50;99.90;;;;;;4991148;28;20034;-72
2022/04/10 01:51:23;;;;;;;8.53;2.33;;;1.30;99.90;;;;;;4980328;28;20421;-72
2022/04/10 01:53:49;;;;;;;10.23;2.97;;;1.30;99.90;;;;;;4972783;28;20030;-72
2022/04/10 01:56:15;;;;;;;10.03;3.27;;;1.30;99.90;;;;;;4958871;28;20036;-72
2022/04/10 01:58:42;;;;;;;8.67;2.70;;;1.30;99.90;;;;;;4991730;28;20394;-72
2022/04/10 02:01:13;;;;;;;5.60;2.47;;;1.30;99.90;;;;;;4990407;28;20026;-72
2022/04/10 02:03:39;;;;;;;9.23;3.23;;;1.00;99.90;;;;;;4972555;28;20027;-73
2022/04/10 02:06:07;;;;;;;7.37;3.57;;;1.00;99.90;;;;;;4974132;28;20031;-73
2022/04/10 02:08:34;;;;;;;14.47;3.77;;;;;;;;;;4984559;28;22082;-72
2022/04/10 02:11:00;;;;;;;8.63;3.03;;;1.00;99.90;;;;;;4960878;28;20089;-72
2022/04/10 02:13:25;;;;;;;10.10;3.53;;;;;;;;;;4986065;28;20026;-72
2022/04/10 02:15:51;;;;;;;17.23;3.60;;;1.00;99.90;;;;;;4991679;28;20073;-72
2022/04/10 02:18:17;;;;;;;11.67;4.37;;;;;;;;;;4978671;28;20456;-72
2022/04/10 02:20:43;;;;;;;12.50;3.53;;;1.10;99.90;;;;;;4974572;28;20030;-72
2022/04/10 02:23:09;;;;;;;8.47;3.40;;;;;;;;;;4990342;28;20534;-72
2022/04/10 02:25:35;;;;;;;7.93;3.30;;;1.00;99.90;;;;;;4991293;28;20441;-72
2022/04/10 02:28:01;;;;;;;12.10;4.13;;;1.20;99.90;;;;;;4975771;28;20098;-72
2022/04/10 02:30:27;;;;;;;14.27;4.57;;;;;;;;;;4972946;28;20031;-72
2022/04/10 02:32:52;;;;;;;9.13;3.90;;;1.10;99.90;;;;;;4972205;28;20050;-72
2022/04/10 02:35:18;;;;;;;11.00;4.53;;;1.00;99.90;;;;;;4979262;28;20038;-71
2022/04/10 02:37:47;;;;;;;13.10;3.40;;;1.00;99.90;;;;;;4991040;28;20023;-72
2022/04/10 02:40:14;;;;;;;9.27;4.10;;;1.10;99.90;;;;;;4975202;28;20436;-74
2022/04/10 02:42:40;;;;;;;10.63;3.50;;;1.20;99.90;;;;;;4983223;28;20101;-73
2022/04/10 02:45:06;;;;;;;10.17;4.73;;;1.00;99.90;;;;;;4981921;28;20042;-73
2022/04/10 02:47:32;;;;;;;13.50;4.77;;;1.10;99.90;;;;;;4970513;28;20035;-72
2022/04/10 02:49:58;;;;;;;11.53;4.33;;;1.00;99.90;;;;;;4971829;28;20184;-72
2022/04/10 02:52:24;;;;;;;9.27;3.83;;;;;;;;;;4971874;28;20031;-72
2022/04/10 02:54:49;;;;;;;9.13;4.37;;;;;;;;;;4976167;28;20030;-72
2022/04/10 02:57:15;;;;;;;7.17;4.37;;;1.10;99.90;;;;;;4980311;28;20031;-72
2022/04/10 02:59:41;;;;;;;14.53;4.27;;;1.10;99.90;;;;;;4971296;28;20039;-72
2022/04/10 03:02:07;;;;;;;11.10;4.60;;;;;;;;;;4972150;28;20027;-72
2022/04/10 03:04:32;;;;;;;10.13;4.43;;;1.10;99.90;;;;;;4954305;28;20428;-73
2022/04/10 03:06:58;;;;;;;8.13;4.40;;;;;;;;;;4976738;28;20030;-72
2022/04/10 03:09:24;;;;;;;12.07;3.63;;;1.00;99.90;;;;;;4968850;28;20035;-72
2022/04/10 03:11:50;;;;;;;8.20;3.60;;;;;;;;;;4977896;28;20569;-72
2022/04/10 03:14:16;;;;;;;13.27;4.77;;;0.80;99.90;;;;;;4969846;28;20034;-72
2022/04/10 03:16:42;;;;;;;10.30;4.77;;;0.80;99.90;;;;;;4967475;28;20023;-72
2022/04/10 03:19:08;;;;;;;6.30;4.10;;;0.80;99.90;;;;;;4970788;28;20054;-72
2022/04/10 03:21:34;;;;;;;6.53;3.60;;;;;;;;;;4969131;28;20037;-72
2022/04/10 03:24:01;;;;;;;6.77;3.50;;;;;;;;;;4969870;28;20400;-72
2022/04/10 03:26:27;;;;;;;11.13;4.73;;;;;;;;;;4971371;28;20074;-72
2022/04/10 03:28:53;;;;;;;11.83;4.90;;;;;;;;;;4988509;28;20053;-72
2022/04/10 03:31:20;;;;;;;11.80;4.23;;;;;;;;;;4979558;28;20038;-72
2022/04/10 03:33:46;;;;;;;13.83;4.53;;;0.80;99.90;;;;;;4985688;28;20387;-72
2022/04/10 03:36:12;;;;;;;9.13;4.47;;;;;;;;;;4971384;28;20042;-72
2022/04/10 03:38:38;;;;;;;10.40;4.03;;;;;;;;;;4970631;28;20041;-72
2022/04/10 03:41:04;;;;;;;13.17;4.20;;;;;;;;;;4982039;28;20026;-71
2022/04/10 03:43:31;;;;;;;10.70;3.57;;;;;;;;;;4981886;28;20109;-72
2022/04/10 03:45:56;;;;;;;8.67;3.47;;;1.10;99.90;;;;;;4990838;28;20022;-72
2022/04/10 03:48:22;;;;;;;9.10;3.00;;;1.00;99.90;;;;;;4978815;28;20042;-70
2022/04/10 03:50:48;;;;;;;6.77;3.37;;;;;;;;;;4987680;28;20407;-72
2022/04/10 03:53:13;;;;;;;12.53;3.07;;;0.90;99.90;;;;;;4987873;28;20026;-72
2022/04/10 03:55:39;;;;;;;9.60;3.70;;;;;;;;;;4989237;28;20030;-72
2022/04/10 03:58:04;;;;;;;6.73;3.07;;;0.70;99.90;;;;;;4984361;28;20038;-72
2022/04/10 04:00:31;;;;;;;14.40;3.47;;;;;;;;;;4970905;28;20141;-72
2022/04/10 04:02:57;;;;;;;7.07;2.63;;;;;;;;;;4972267;28;20102;-71
2022/04/10 04:05:23;;;;;;;10.20;3.10;;;;;;;;;;4954567;28;20061;-71
2022/04/10 04:07:49;;;;;;;6.20;3.30;;;1.00;99.90;;;;;;4974020;28;20356;-72
2022/04/10 04:10:15;;;;;;;9.20;3.03;;;;;;;;;;4975517;28;20122;-72
2022/04/10 04:12:40;;;;;;;14.53;2.80;;;0.50;99.90;;;;;;4978252;28;20113;-72
2022/04/10 04:15:07;;;;;;;8.20;2.93;;;0.40;99.90;;;;;;4973523;28;20041;-72
2022/04/10 04:17:33;;;;;;;8.20;2.90;;;;;;;;;;4973725;28;20567;-72
2022/04/10 04:19:58;;;;;;;14.63;3.20;;;0.50;99.90;;;;;;4980516;28;20018;-72
2022/04/10 04:22:24;;;;;;;9.97;3.13;;;0.40;99.90;;;;;;4988555;28;20476;-72
2022/04/10 04:24:50;;;;;;;4.73;2.17;;;;;;;;;;4983506;28;20355;-72
2022/04/10 04:27:16;;;;;;;7.53;3.43;;;;;;;;;;4970928;28;20088;-72
2022/04/10 04:29:41;;;;;;;8.57;3.27;;;0.70;99.90;;;;;;4987424;28;20038;-72
2022/04/10 04:32:07;;;;;;;13.87;4.17;;;0.90;99.90;;;;;;4985433;28;20067;-72
2022/04/10 04:34:33;;;;;;;9.90;4.20;;;;;;;;;;4970155;28;20114;-72
2022/04/10 04:36:59;;;;;;;7.83;3.63;;;0.70;99.90;;;;;;4970611;28;20027;-72
2022/04/10 04:39:24;;;;;;;12.70;3.53;;;0.70;99.90;;;;;;4973190;28;20030;-73
2022/04/10 04:41:50;;;;;;;7.40;3.30;;;0.70;99.90;;;;;;4986598;28;20467;-72
2022/04/10 04:44:16;;;;;;;10.00;3.57;;;0.80;99.90;;;;;;4969329;28;20396;-72
2022/04/10 04:46:42;;;;;;;7.40;3.50;;;0.60;99.90;;;;;;4969934;28;20023;-72
2022/04/10 04:49:08;;;;;;;5.70;2.80;;;0.50;99.90;;;;;;4987666;28;20034;-72
2022/04/10 04:51:36;;;;;;;16.27;3.47;;;;;;;;;;4988057;28;20121;-72
2022/04/10 04:54:02;;;;;;;12.00;3.43;;;0.30;99.90;;;;;;4971229;28;20108;-72
2022/04/10 04:56:28;;;;;;;12.07;3.93;;;;;;;;;;4973378;28;20034;-72
2022/04/10 04:58:53;;;;;;;7.17;2.93;;;0.30;99.90;;;;;;4976308;28;20041;-72
2022/04/10 05:01:19;;;;;;;10.00;3.47;;;0.20;99.90;;;;;;4970409;28;20035;-72
2022/04/10 05:03:44;;;;;;;14.43;4.13;;;0.20;99.90;;;;;;4968456;28;20035;-72
2022/04/10 05:06:10;;;;;;;10.13;3.50;;;0.30;99.90;;;;;;4973719;28;20022;-72
2022/04/10 05:08:36;;;;;;;11.30;4.07;;;;;;;;;;4990809;28;20380;-72
2022/04/10 05:11:01;;;;;;;12.20;3.80;;;0.00;99.90;;;;;;4986259;28;20122;-72
2022/04/10 05:13:27;;;;;;;6.23;3.53;;;;;;;;;;4981555;28;20125;-71
2022/04/10 05:15:54;;;;;;;10.37;3.90;;;0.10;99.90;;;;;;4992905;28;20724;-71
2022/04/10 05:18:19;;;;;;;10.23;3.97;;;0.20;99.90;;;;;;4970137;28;20038;-71
2022/04/10 05:20:46;;;;;;;8.47;3.53;;;0.10;99.90;;;;;;4989797;28;20030;-72
2022/04/10 05:23:16;;;;;;;6.43;3.27;;;0.20;99.90;;;;;;4991432;28;20030;-71
2022/04/10 05:25:41;;;;;;;7.47;3.67;;;0.20;99.90;;;;;;4991926;28;20049;-71
2022/04/10 05:28:07;;;;;;;10.67;3.83;;;0.00;99.90;;;;;;4990335;28;20039;-72
2022/04/10 05:30:33;;;;;;;6.00;3.43;;;;;;;;;;4991815;28;20034;-72
2022/04/10 05:32:59;;;;;;;7.50;4.40;;;0.80;99.90;;;;;;4991451;28;20052;-71
2022/04/10 05:35:24;;;;;;;15.63;3.60;;;0.30;99.90;;;;;;4992631;28;20464;-72
2022/04/10 05:37:49;;;;;;;11.33;3.73;;;0.40;99.90;;;;;;4990788;28;20026;-72
2022/04/10 05:40:16;;;;;;;17.60;5.73;;;0.40;99.90;;;;;;4982542;28;20026;-71
2022/04/10 05:42:45;;;;;;;9.90;5.43;;;0.80;99.90;;;;;;4972810;28;20023;-72
2022/04/10 05:45:11;;;;;;;15.03;4.60;;;0.80;99.90;;;;;;4991919;28;20039;-72
2022/04/10 05:47:39;;;;;;;7.07;3.57;;;0.70;99.90;;;;;;4985340;28;20062;-72
2022/04/10 05:50:05;;;;;;;12.03;4.83;;;0.90;99.90;;;;;;4983216;28;20038;-72
2022/04/10 05:52:31;;;;;;;14.90;5.17;;;;;;;;;;4982075;28;20126;-72
2022/04/10 05:54:59;;;;;;;16.40;6.03;;;0.90;99.90;;;;;;4992085;28;20427;-72
2022/04/10 05:57:26;;;;;;;18.23;6.10;;;1.10;99.90;;;;;;4986782;28;20062;-72
2022/04/10 05:59:52;;;;;;;12.47;6.03;;;;;;;;;;4988490;28;20043;-72
2022/04/10 06:02:17;;;;;;;9.63;5.17;;;1.40;99.90;;;;;;4991940;28;20442;-72
2022/04/10 06:04:43;;;;;;;12.80;6.53;;;1.50;99.90;;;;;;4960041;28;20031;-72
2022/04/10 06:07:08;;;;;;;16.73;6.23;;;1.40;99.90;;;;;;4975048;28;20104;-72
2022/04/10 06:09:34;;;;;;;16.67;6.33;;;1.60;99.90;;;;;;4986620;28;20109;-72
2022/04/10 06:12:00;;;;;;;11.63;7.20;;;1.70;99.90;;;;;;4990554;28;20463;-72
2022/04/10 06:14:25;;;;;;;11.90;5.63;;;2.00;99.90;;;;;;4983002;28;20026;-72
2022/04/10 06:16:51;;;;;;;10.50;5.70;;;;;;;;;;4990507;28;20118;-72
2022/04/10 06:19:18;;;;;;;10.87;5.80;;;;;;;;;;4985765;28;20091;-72
2022/04/10 06:21:44;;;;;;;9.17;5.17;;;2.10;99.90;;;;;;4980886;28;20099;-72
2022/04/10 06:24:09;;;;;;;15.17;6.23;;;2.10;99.90;;;;;;4983812;28;20117;-72
2022/04/10 06:26:35;;;;;;;13.77;6.03;;;2.30;99.90;;;;;;4986022;28;20050;-73
2022/04/10 06:29:01;;;;;;;14.47;7.43;;;;;;;;;;4989906;28;20112;-73
2022/04/10 06:31:27;;;;;;;11.73;5.43;;;;;;;;;;4990294;28;20041;-72
2022/04/10 06:33:56;;;;;;;8.87;5.97;;;;;;;;;;4983700;28;20485;-72
2022/04/10 06:36:22;;;;;;;12.10;5.50;;;;;;;;;;4980433;28;20120;-72
2022/04/10 06:38:49;;;;;;;12.00;5.63;;;2.80;99.90;;;;;;4975789;28;20461;-72
2022/04/10 06:41:15;;;;;;;11.70;6.73;;;;;;;;;;4981987;28;20142;-72
2022/04/10 06:43:40;;;;;;;18.83;7.07;;;;;;;;;;4974237;28;20701;-72
2022/04/10 06:46:06;;;;;;;13.13;5.77;;;;;;;;;;4990511;28;20110;-72
2022/04/10 06:48:32;;;;;;;17.87;6.23;;;4.10;99.90;;;;;;4981116;28;20035;-72
2022/04/10 06:50:58;;;;;;;9.20;5.20;;;;;;;;;;4989731;28;20044;-73
2022/04/10 06:53:24;;;;;;;10.67;5.10;;;4.10;99.90;;;;;;4990922;28;20690;-72
2022/04/10 06:55:49;;;;;;;11.07;5.30;;;4.40;99.90;;;;;;4981976;28;20038;-72
2022/04/10 06:58:17;;;;;;;8.43;3.57;;;4.40;99.90;;;;;;4970492;28;20031;-73
2022/04/10 07:00:42;;;;;;;15.57;3.63;;;4.40;99.90;;;;;;4969890;28;20535;-72
2022/04/10 07:03:08;;;;;;;5.43;2.27;;;4.50;99.90;;;;;;4982529;28;20511;-71
2022/04/10 07:05:34;;;;;;;9.13;2.83;;;;;;;;;;4989874;28;20057;-72
2022/04/10 07:08:00;;;;;;;10.20;2.40;;;;;;;;;;4975781;28;20058;-72
2022/04/10 07:10:25;;;;;;;4.27;2.33;;;4.80;99.90;;;;;;4971972;28;20503;-73
2022/04/10 07:12:51;;;;;;;7.23;1.53;;;4.70;99.90;;;;;;4974122;28;20018;-73
2022/04/10 07:15:18;;;;;;;11.53;2.70;;;4.90;99.90;;;;;;4977841;28;20086;-74
2022/04/10 07:17:44;;;;;;;6.97;2.10;;;;;;;;;;4988134;28;20022;-73
2022/04/10 07:20:10;;;;;;;6.30;1.47;;;5.10;99.90;;;;;;4983517;28;20042;-72
2022/04/10 07:25:19;;;;;;;3.33;1.17;;;4.90;99.90;;;;;;4970994;28;20061;-73
2022/04/10 07:27:45;;;;;;;4.27;1.00;;;5.00;99.90;;;;;;4958551;28;20113;-73
2022/04/10 07:30:11;;;;;;;2.27;0.90;;;4.90;99.90;;;;;;4988273;28;20049;-73
2022/04/10 07:32:37;;;;;;;8.13;1.03;;;5.00;99.90;;;;;;4971522;28;20022;-73
2022/04/10 07:35:04;;;;;;;2.93;0.93;;;5.00;99.90;;;;;;4988541;28;20037;-73
2022/04/10 07:37:30;;;;;;;4.00;1.17;;;;;;;;;;4988432;28;20050;-73
2022/04/10 07:39:56;;;;;;;4.50;1.20;;;;;;;;;;4989764;28;20061;-73
2022/04/10 07:42:21;;;;;;;4.33;1.13;;;;;;;;;;4989722;28;20026;-73
2022/04/10 07:44:47;;;;;;;4.97;1.10;;;;;;;;;;4989220;28;20026;-73
2022/04/10 07:47:25;;;;;;;4.67;1.20;;;;;;;;;;4989462;28;20045;-73
2022/04/10 07:49:51;;;;;;;8.77;1.47;;;5.00;99.90;;;;;;4970526;28;20082;-73
2022/04/10 07:52:17;;;;;;;5.17;1.20;;;;;;;;;;4982683;28;20065;-73
2022/04/10 07:54:43;;;;;;;6.83;1.17;;;4.90;99.90;;;;;;4969556;28;20035;-73
2022/04/10 07:57:09;;;;;;;5.90;0.70;;;;;;;;;;4970321;28;20337;-73
2022/04/10 07:59:35;;;;;;;2.77;0.77;;;;;;;;;;4952337;28;20074;-73
2022/04/10 08:02:02;;;;;;;5.33;1.20;;;;;;;;;;4969733;28;20117;-73
2022/04/10 08:04:28;;;;;;;3.50;1.10;;;;;;;;;;4970025;28;20031;-72
2022/04/10 08:06:54;;;;;;;3.77;0.87;;;5.80;99.90;;;;;;4971475;28;20120;-73
2022/04/10 08:09:20;;;;;;;3.80;1.00;;;;;;;;;;4975584;28;20047;-72
2022/04/10 08:11:45;;;;;;;5.50;1.37;;;5.90;99.90;;;;;;4966331;28;20034;-73
2022/04/10 08:14:11;;;;;;;5.03;0.97;;;5.90;99.90;;;;;;4989538;28;20034;-73
2022/04/10 08:16:36;;;;;;;2.63;0.97;;;6.20;99.90;;;;;;4988336;28;20027;-73
2022/04/10 08:19:02;;;;;;;4.03;1.20;;;6.10;99.90;;;;;;4982612;28;20088;-73
2022/04/10 08:21:27;;;;;;;3.63;1.80;;;6.10;99.90;;;;;;4970922;28;20117;-72
2022/04/10 08:23:53;;;;;;;2.40;1.10;;;6.50;99.90;;;;;;4989087;28;20031;-71
2022/04/10 08:26:18;;;;;;;5.17;1.57;;;6.40;99.90;;;;;;4988072;28;20089;-72
2022/04/10 08:28:44;;;;;;;5.07;1.60;;;6.60;99.90;;;;;;4988411;28;20085;-72
2022/04/10 08:31:09;;;;;;;2.50;1.63;;;6.60;99.90;;;;;;4987864;28;20034;-72
2022/04/10 08:33:35;;;;;;;4.80;1.30;;;;;;;;;;4988029;28;20026;-72
2022/04/10 08:36:01;;;;;;;7.73;2.10;;;6.60;99.90;;;;;;4989323;28;20026;-72
2022/04/10 08:38:27;;;;;;;4.13;1.27;;;;;;;;;;4989009;28;20088;-72
2022/04/10 08:41:03;;;;;;;7.90;1.50;;;6.80;99.90;;;;;;4974551;28;20030;-73
2022/04/10 08:43:29;;;;;;;3.70;1.30;;;6.80;99.90;;;;;;4992682;28;20037;-73
2022/04/10 08:45:58;;;;;;;1.97;1.10;;;6.50;99.90;;;;;;4992874;28;20022;-72
2022/04/10 08:48:26;;;;;;;4.00;1.20;;;7.20;99.90;;;;;;4978223;28;20027;-72
2022/04/10 08:50:54;;;;;;;2.97;0.93;;;6.90;99.90;;;;;;4973458;28;20042;-73
2022/04/10 08:53:21;;;;;;;4.63;0.83;;;6.90;99.90;;;;;;4973872;28;20043;-73
2022/04/10 08:55:47;;;;;;;3.73;0.90;;;6.90;99.90;;;;;;4989411;28;20038;-73
2022/04/10 08:58:12;;;;;;;3.00;0.73;;;7.10;99.90;;;;;;4993440;28;20041;-72
2022/04/10 09:00:44;;;;;;;3.47;0.90;;;7.10;99.90;;;;;;4991770;28;20035;-72
2022/04/10 09:03:10;;;;;;;7.40;1.70;;;;;;;;;;4993382;28;20038;-72
2022/04/10 09:05:37;;;;;;;7.30;1.13;;;7.30;99.90;;;;;;4991861;28;20105;-72
2022/04/10 09:08:18;;;;;;;2.77;0.90;;;7.50;99.90;;;;;;4993063;28;20034;-73
2022/04/10 09:10:57;;;;;;;4.93;1.07;;;7.70;99.90;;;;;;4990560;28;20472;-72
2022/04/10 09:13:52;;;;;;;5.80;1.03;;;7.70;99.90;;;;;;4974750;28;20037;-72
2022/04/10 09:16:22;;;;;;;6.93;2.00;;;7.90;99.90;;;;;;4992811;28;20026;-72
2022/04/10 09:18:54;;;;;;;6.77;1.80;;;7.90;99.90;;;;;;4984593;28;20097;-72
2022/04/10 09:21:29;;;;;;;4.80;1.27;;;7.60;99.90;;;;;;4973181;28;20027;-72
2022/04/10 09:24:04;;;;;;;8.03;1.30;;;7.70;99.90;;;;;;4973106;28;20130;-72
2022/04/10 09:26:47;;;;;;;3.90;0.70;;;8.30;99.90;;;;;;4972631;28;20055;-72
2022/04/10 09:29:14;;;;;;;3.80;1.33;;;7.90;99.90;;;;;;4972544;28;20202;-72
2022/04/10 09:31:40;;;;;;;2.40;0.60;;;8.10;99.90;;;;;;4956968;28;20053;-72
2022/04/10 09:34:09;;;;;;;6.03;1.43;;;8.20;99.90;;;;;;4982922;28;20475;-72
2022/04/10 09:36:37;;;;;;;3.43;0.83;;;8.20;99.90;;;;;;4972441;28;20333;-72
2022/04/10 09:39:05;;;;;;;2.30;0.90;;;8.30;99.90;;;;;;4989533;28;20029;-72
2022/04/10 09:41:31;;;;;;;2.27;0.90;;;;;;;;;;4991772;28;20126;-72
2022/04/10 09:44:12;;;;;;;3.43;0.90;;;8.80;99.90;;;;;;4974198;28;20078;-72
2022/04/10 09:46:38;;;;;;;2.63;1.03;;;8.80;99.90;;;;;;4991858;28;20022;-72
2022/04/10 09:49:05;;;;;;;3.97;0.97;;;8.80;99.90;;;;;;4992135;28;20053;-72
2022/04/10 09:51:30;;;;;;;5.27;0.90;;;8.60;99.90;;;;;;4992130;28;20136;-73
2022/04/10 09:54:05;;;;;;;3.03;1.43;;;8.60;99.90;;;;;;5009666;28;20124;-73
2022/04/10 09:56:32;;;;;;;5.87;1.07;;;8.80;98.20;;;;;;4973692;28;20610;-72
2022/04/10 09:59:01;;;;;;;3.80;0.77;;;8.70;99.90;;;;;;4991805;28;20101;-72
2022/04/10 10:01:30;;;;;;;6.93;0.80;;;8.90;96.90;;;;;;4990762;28;20030;-72
2022/04/10 10:03:57;;;;;;;4.90;0.90;;;8.90;99.90;;;;;;4990786;28;20022;-72
2022/04/10 10:06:24;;;;;;;8.20;2.17;;;8.90;97.50;;;;;;4988929;28;20081;-72
2022/04/10 10:08:50;;;;;;;2.80;0.60;;;9.00;99.90;;;;;;4990740;28;20022;-72
2022/04/10 10:11:17;;;;;;;4.20;0.77;;;9.20;97.00;;;;;;4991350;28;20027;-72
2022/04/10 10:13:43;;;;;;;3.60;0.90;;;9.40;99.90;;;;;;4991201;28;20104;-72
2022/04/10 10:16:09;;;;;;;5.60;0.60;;;9.50;99.90;;;;;;4991761;28;20479;-73
2022/04/10 10:18:36;;;;;;;8.83;1.07;;;9.20;99.90;;;;;;4986786;28;20034;-72
2022/04/10 10:21:03;;;;;;;1.37;0.60;;;;;;;;;;5005844;28;20029;-72
2022/04/10 10:23:29;;;;;;;2.13;1.20;;;9.30;98.60;;;;;;5003590;28;20034;-72
2022/04/10 10:26:30;;;;;;;1.87;0.67;;;9.60;99.90;;;;;;4990731;28;20056;-72
2022/04/10 10:29:05;;;;;;;4.10;0.70;;;9.60;99.90;;;;;;4991115;28;20033;-72
2022/04/10 10:31:46;;;;;;;4.97;0.47;;;9.50;99.10;;;;;;4974022;28;20395;-72
2022/04/10 10:34:12;;;;;;;4.17;0.50;;;9.70;99.90;;;;;;4986831;28;20117;-73
2022/04/10 10:36:38;;;;;;;5.70;0.77;;;;;;;;;;4985341;28;20114;-73
2022/04/10 10:39:05;;;;;;;1.90;0.50;;;9.70;99.90;;;;;;4991239;28;20022;-72
2022/04/10 10:41:37;;;;;;;5.03;0.70;;;10.00;99.90;;;;;;4989878;28;20443;-72
2022/04/10 10:44:39;;;;;;;9.50;1.20;;;9.90;99.90;;;;;;4989313;28;20084;-72
2022/04/10 10:47:05;;;;;;;3.30;0.77;;;9.80;99.90;;;;;;4948775;28;20023;-72
2022/04/10 10:49:32;;;;;;;1.87;0.63;;;10.00;92.90;;;;;;4948926;29;20477;-71
2022/04/10 10:51:58;;;;;;;4.23;0.87;;;10.10;99.80;;;;;;4949732;29;20031;-72
2022/04/10 10:54:32;;;;;;;2.43;0.70;;;9.90;99.80;;;;;;4949388;28;20038;-72
2022/04/10 10:56:58;;;;;;;3.57;1.07;;;9.80;93.10;;;;;;4949854;28;20031;-72
2022/04/10 10:59:29;;;;;;;3.80;1.50;;;9.40;98.90;;;;;;4949663;28;20583;-72
2022/04/10 11:02:06;;;;;;;0.67;0.30;;;9.40;98.90;;;;;;4949490;28;20102;-72
2022/04/10 11:04:41;;;;;;;1.30;0.30;;;9.40;97.40;;;;;;4933137;29;20031;-72
2022/04/10 11:07:18;;;;;;;2.17;0.33;;;9.60;96.80;;;;;;4934581;29;20499;-72
2022/04/10 11:09:51;;;;;;;4.37;1.23;;;9.60;96.70;;;;;;4948776;29;20071;-72
2022/04/10 11:12:21;;;;;;;1.65;0.80;;;10.00;96.80;;;;;;4949642;28;20030;-71
2022/04/10 11:14:50;;;;;;;1.03;0.47;;;9.60;95.90;;;;;;4949040;29;20047;-71
2022/04/10 11:17:21;;;;;;;2.13;0.60;;;10.00;95.90;;;;;;4949497;28;20106;-71
2022/04/10 11:19:54;;;;;;;2.63;0.63;;;9.90;96.10;;;;;;4948801;29;20031;-72
2022/04/10 11:22:25;;;;;;;1.33;0.60;;;9.90;96.30;;;;;;4990907;28;20440;-71
2022/04/10 11:24:57;;;;;;;1.57;0.40;;;10.10;94.00;;;;;;4971525;28;20035;-71
2022/04/10 11:27:42;;;;;;;2.47;0.60;;;10.00;96.80;;;;;;4970735;28;20042;-71
2022/04/10 11:30:13;;;;;;;2.20;0.60;;;10.40;96.90;;;;;;4970786;28;20119;-71
2022/04/10 11:32:53;;;;;;;1.83;0.60;;;10.10;96.30;;;;;;4970289;28;20258;-71
2022/04/10 11:35:24;;;;;;;2.63;0.50;;;10.20;96.30;;;;;;4953598;28;20031;-71
2022/04/10 11:37:54;;;;;;;1.13;0.60;;;10.10;96.40;;;;;;4971113;28;20102;-71
2022/04/10 11:40:23;;;;;;;2.80;0.50;;;10.10;96.40;;;;;;4987855;28;20436;-71
2022/04/10 11:42:48;;;;;;;1.87;0.40;;;10.30;96.50;;;;;;4955967;28;20053;-70
2022/04/10 11:45:14;;;;;;;4.50;0.57;;;10.40;96.20;;;;;;4970487;28;20023;-72
2022/04/10 11:47:42;;;;;;;2.47;0.57;;;10.40;95.30;;;;;;4968650;28;20110;-72
2022/04/10 11:50:11;;;;;;;4.13;0.70;;;10.50;95.50;;;;;;4952975;28;20396;-73
2022/04/10 11:52:37;;;;;;;4.53;0.67;;;10.80;95.90;;;;;;4969502;28;20129;-72
2022/04/10 11:55:08;;;;;;;2.80;0.73;;;10.30;95.70;;;;;;4989522;28;20062;-72
2022/04/10 11:57:36;;;;;;;2.67;0.70;;;10.50;88.40;;;;;;4989481;28;20034;-72
2022/04/10 12:00:06;;;;;;;1.80;0.67;;;10.50;95.90;;;;;;4987678;28;20070;-72
2022/04/10 12:02:34;;;;;;;1.87;0.63;;;10.40;96.30;;;;;;4985066;28;20033;-72
2022/04/10 12:05:00;;;;;;;5.83;0.73;;;10.60;97.00;;;;;;4988772;28;20030;-72
2022/04/10 12:07:26;;;;;;;3.27;1.00;;;10.40;96.90;;;;;;4988249;28;20044;-72
2022/04/10 12:09:52;;;;;;;3.10;0.83;;;10.60;96.90;;;;;;4989284;28;20042;-72
2022/04/10 12:12:20;;;;;;;3.83;0.80;;;10.80;90.40;;;;;;4973031;28;20031;-72
2022/04/10 12:14:49;;;;;;;3.43;1.57;;;10.30;96.50;;;;;;4974018;28;20022;-72
2022/04/10 12:17:19;;;;;;;5.17;0.93;;;10.30;96.60;;;;;;4971841;28;20038;-72
2022/04/10 12:19:45;;;;;;;2.93;0.50;;;10.80;96.80;;;;;;4989149;28;20352;-72
2022/04/10 12:22:10;;;;;;;1.53;0.80;;;11.10;96.60;;;;;;4988979;28;20034;-74
2022/04/10 12:24:37;;;;;;;3.80;0.77;;;10.70;89.70;;;;;;4971267;28;20113;-73
2022/04/10 12:27:07;;;;;;;4.83;0.90;;;11.60;89.50;;;;;;4976089;28;20037;-73
2022/04/10 12:29:36;;;;;;;7.20;0.60;;;11.70;88.90;;;;;;4969617;28;20166;-73
2022/04/10 12:32:03;;;;;;;1.57;0.60;;;11.30;89.20;;;;;;4970020;28;20041;-73
2022/04/10 12:34:40;;;;;;;2.70;0.60;;;11.50;88.50;;;;;;4969461;28;20031;-72
2022/04/10 12:37:08;;;;;;;3.60;0.70;;;11.60;89.80;;;;;;4952047;28;20092;-72
2022/04/10 12:39:33;;;;;;;3.80;0.70;;;11.70;87.10;;;;;;4972989;28;20066;-72
2022/04/10 12:42:08;;;;;;;1.80;1.33;;;11.60;87.30;;;;;;4988027;28;20507;-72
2022/04/10 12:44:38;;;;;;;2.57;0.63;;;11.60;85.40;;;;;;4988411;28;20030;-74
2022/04/10 12:47:06;;;;;;;2.63;1.13;;;11.60;87.20;;;;;;4988528;28;20027;-73
2022/04/10 12:49:32;;;;;;;1.50;0.80;;;11.70;86.70;;;;;;4988877;28;20468;-73
2022/04/10 12:52:03;;;;;;;2.80;0.50;;;11.70;86.00;;;;;;4988809;28;20041;-73
2022/04/10 12:54:33;;;;;;;2.42;0.60;;;11.80;86.70;;;;;;4989021;28;20022;-73
2022/04/10 12:56:58;;;;;;;3.70;0.80;;;12.10;86.90;;;;;;4984385;28;20428;-73
2022/04/10 12:59:44;;;;;;;5.90;0.90;;;11.90;84.30;;;;;;4983825;28;20039;-73
2022/04/10 13:02:23;;;;;;;0.80;0.50;;;11.90;82.40;;;;;;4986546;28;20542;-73
2022/04/10 13:04:53;;;;;;;2.07;0.50;;;11.90;82.10;;;;;;4988767;28;20472;-73
2022/04/10 13:07:19;;;;;;;3.80;0.83;;;14.20;85.30;;;;;;4987717;28;20058;-73
2022/04/10 13:10:01;;;;;;;3.03;1.03;;;13.10;82.50;;;;;;4988500;28;20110;-73
2022/04/10 13:12:28;;;;;;;2.17;0.73;;;12.40;81.40;;;;;;4984776;28;20496;-73
2022/04/10 13:14:54;;;;;;;3.67;1.27;;;12.50;83.30;;;;;;4971674;28;20043;-73
2022/04/10 13:17:20;;;;;;;3.63;0.85;;;12.50;81.50;;;;;;4969837;28;20361;-73
2022/04/10 13:19:46;;;;;;;5.87;1.20;;;13.40;82.20;;;;;;4968748;28;20034;-73